Time;durP1;ratioP1;P1;durP2;ratioP2;P2;SDS_P1;SDS_P2;PMS_P1;PMS_P2;Temp;Humidity;BMP_temperature;BMP_pressure;BME280_temperature;BME280_humidity;BME280_pressure;Samples;Min_cycle;Max_cycle;Signal;HPM_P1;HPM_P2
2021/12/28 00:01:18;;;;;;;2.70;1.40;;;7.70;99.90;;;;;;5073118;28;20536;-77
2021/12/28 00:03:46;;;;;;;3.00;1.43;;;7.80;99.90;;;;;;5073792;28;20455;-77
2021/12/28 00:06:15;;;;;;;3.63;1.70;;;7.70;99.90;;;;;;5073141;28;20445;-79
2021/12/28 00:08:43;;;;;;;2.37;1.43;;;7.80;99.90;;;;;;5073529;28;20453;-74
2021/12/28 00:11:10;;;;;;;2.10;1.53;;;7.70;99.90;;;;;;5071314;28;20446;-76
2021/12/28 00:13:38;;;;;;;4.30;1.20;;;7.70;99.90;;;;;;5073503;28;20445;-79
2021/12/28 00:16:32;;;;;;;3.10;1.27;;;7.70;99.90;;;;;;5072641;28;20460;-77
2021/12/28 00:19:00;;;;;;;2.97;1.13;;;7.80;99.90;;;;;;5072864;28;20551;-77
2021/12/28 00:21:29;;;;;;;1.67;1.40;;;7.70;99.90;;;;;;5073081;28;20455;-76
2021/12/28 00:23:58;;;;;;;5.60;1.40;;;7.60;99.90;;;;;;5073473;28;20441;-77
2021/12/28 00:26:24;;;;;;;1.90;1.10;;;7.60;99.90;;;;;;5073367;28;20844;-77
2021/12/28 00:28:51;;;;;;;2.83;1.60;;;7.70;99.90;;;;;;5072464;28;20457;-77
2021/12/28 00:31:19;;;;;;;2.03;0.93;;;7.70;99.90;;;;;;5072392;28;20532;-77
2021/12/28 00:33:46;;;;;;;2.20;1.47;;;7.60;99.90;;;;;;5073227;28;20477;-77
2021/12/28 00:36:14;;;;;;;4.30;1.40;;;7.50;99.90;;;;;;5072887;28;20532;-77
2021/12/28 00:38:43;;;;;;;1.73;1.20;;;7.60;99.90;;;;;;5072516;28;20488;-79
2021/12/28 00:41:10;;;;;;;1.60;1.27;;;7.60;99.90;;;;;;5072129;28;20524;-76
2021/12/28 00:43:37;;;;;;;1.40;1.00;;;7.50;99.90;;;;;;5072589;28;20445;-77
2021/12/28 00:46:06;;;;;;;1.73;0.90;;;7.60;99.90;;;;;;5072235;28;20450;-76
2021/12/28 00:48:34;;;;;;;6.30;1.50;;;7.50;99.90;;;;;;5072983;28;20460;-77
2021/12/28 00:51:01;;;;;;;3.73;1.77;;;7.40;99.90;;;;;;5071377;28;20454;-76
2021/12/28 00:53:28;;;;;;;6.40;1.80;;;7.40;99.90;;;;;;5072572;28;20453;-76
2021/12/28 00:55:57;;;;;;;2.40;1.30;;;7.30;99.90;;;;;;5072291;28;20534;-77
2021/12/28 00:58:24;;;;;;;2.50;1.13;;;7.20;99.90;;;;;;5071834;28;20481;-77
2021/12/28 01:00:52;;;;;;;3.67;1.30;;;7.10;99.90;;;;;;5072065;28;20460;-79
2021/12/28 01:03:20;;;;;;;1.50;1.03;;;7.10;99.90;;;;;;5072021;28;20533;-79
2021/12/28 01:05:47;;;;;;;5.77;1.57;;;7.10;99.90;;;;;;5072646;28;20489;-77
2021/12/28 01:08:15;;;;;;;4.70;1.40;;;7.20;99.90;;;;;;5071950;28;20516;-76
2021/12/28 01:10:44;;;;;;;2.80;1.53;;;7.20;99.90;;;;;;5071832;28;20456;-77
2021/12/28 01:13:13;;;;;;;3.20;1.30;;;7.40;99.90;;;;;;5071380;28;20925;-79
2021/12/28 01:15:41;;;;;;;5.83;1.70;;;7.30;99.90;;;;;;5072172;28;20454;-76
2021/12/28 01:18:08;;;;;;;9.27;2.37;;;7.30;99.90;;;;;;5071767;28;20487;-77
2021/12/28 01:20:35;;;;;;;3.73;1.47;;;7.30;99.90;;;;;;5071412;28;20480;-79
2021/12/28 01:23:03;;;;;;;3.00;1.10;;;7.20;99.90;;;;;;5071735;28;20965;-76
2021/12/28 01:25:31;;;;;;;3.67;1.50;;;7.20;99.90;;;;;;5071531;28;20456;-76
2021/12/28 01:27:58;;;;;;;3.80;1.30;;;7.30;99.90;;;;;;5072234;28;20823;-77
2021/12/28 01:30:28;;;;;;;4.77;1.30;;;7.10;99.90;;;;;;5071700;28;20472;-78
2021/12/28 01:32:57;;;;;;;3.13;1.17;;;7.00;99.90;;;;;;5072043;28;20444;-77
2021/12/28 01:35:24;;;;;;;5.57;1.83;;;6.90;99.90;;;;;;5071580;28;20480;-78
2021/12/28 01:37:51;;;;;;;2.03;1.27;;;6.80;99.90;;;;;;5073027;28;20481;-77
2021/12/28 01:40:20;;;;;;;5.10;1.70;;;6.80;99.90;;;;;;5080853;28;20509;-76
2021/12/28 01:43:05;;;;;;;2.50;2.00;;;7.00;99.90;;;;;;5090654;28;20429;-76
2021/12/28 01:45:45;;;;;;;8.53;1.40;;;6.90;99.90;;;;;;5087898;28;20448;-76
2021/12/28 01:48:14;;;;;;;2.07;1.17;;;6.90;99.90;;;;;;5083159;28;20459;-79
2021/12/28 01:50:41;;;;;;;8.13;2.83;;;6.90;99.90;;;;;;5073401;28;20449;-77
2021/12/28 01:53:09;;;;;;;6.60;2.20;;;6.90;99.90;;;;;;5071353;28;20488;-77
2021/12/28 01:55:39;;;;;;;7.73;1.60;;;6.90;99.90;;;;;;5071910;28;20778;-77
2021/12/28 01:58:07;;;;;;;6.70;2.00;;;7.00;99.90;;;;;;5070892;28;20472;-77
2021/12/28 02:00:37;;;;;;;3.03;1.50;;;7.10;99.90;;;;;;5071160;28;20460;-79
2021/12/28 02:03:10;;;;;;;3.43;1.30;;;7.20;99.90;;;;;;5058144;28;20461;-79
2021/12/28 02:05:37;;;;;;;4.00;1.50;;;7.20;99.90;;;;;;5071569;28;20438;-78
2021/12/28 02:08:05;;;;;;;5.10;1.67;;;7.10;99.90;;;;;;5070810;28;20457;-77
2021/12/28 02:10:32;;;;;;;3.80;2.10;;;7.00;99.90;;;;;;5070708;28;20450;-79
2021/12/28 02:12:59;;;;;;;3.17;1.30;;;6.90;99.90;;;;;;5059320;28;20930;-71
2021/12/28 02:15:26;;;;;;;7.73;2.00;;;6.80;99.90;;;;;;5071473;28;20449;-78
2021/12/28 02:17:54;;;;;;;4.30;1.40;;;6.90;99.90;;;;;;5071518;28;20489;-79
2021/12/28 02:20:23;;;;;;;3.70;1.43;;;7.00;99.90;;;;;;5070360;28;20885;-77
2021/12/28 02:22:50;;;;;;;5.30;1.60;;;6.90;99.90;;;;;;5071515;28;20457;-77
2021/12/28 02:25:18;;;;;;;6.50;2.07;;;6.80;99.90;;;;;;5070713;28;20495;-77
2021/12/28 02:27:45;;;;;;;5.77;1.93;;;6.90;99.90;;;;;;5071211;28;20842;-76
2021/12/28 02:30:14;;;;;;;8.60;2.23;;;7.00;99.90;;;;;;5070197;28;20453;-77
2021/12/28 02:32:42;;;;;;;6.33;1.57;;;7.00;99.90;;;;;;5070870;28;20469;-77
2021/12/28 02:35:11;;;;;;;12.90;1.97;;;7.10;99.90;;;;;;5073151;28;20477;-77
2021/12/28 02:37:39;;;;;;;4.27;1.50;;;7.10;99.90;;;;;;5075024;28;20484;-77
2021/12/28 02:40:08;;;;;;;4.20;1.63;;;7.10;99.90;;;;;;5073984;28;20520;-77
2021/12/28 02:42:35;;;;;;;6.13;1.80;;;7.10;99.90;;;;;;5074970;28;20453;-76
2021/12/28 02:45:09;;;;;;;6.50;1.60;;;7.20;99.90;;;;;;5074598;28;20458;-77
2021/12/28 02:47:36;;;;;;;7.13;1.50;;;7.20;99.90;;;;;;5074949;28;20449;-77
2021/12/28 02:50:05;;;;;;;5.13;1.60;;;7.20;99.90;;;;;;5074049;28;20461;-77
2021/12/28 02:52:36;;;;;;;4.87;2.23;;;7.30;99.90;;;;;;5074543;28;20838;-77
2021/12/28 02:55:06;;;;;;;2.70;1.40;;;7.20;99.90;;;;;;5061737;28;20816;-77
2021/12/28 02:57:33;;;;;;;3.87;1.70;;;7.30;99.90;;;;;;5074827;28;20446;-77
2021/12/28 03:00:00;;;;;;;2.53;1.20;;;7.30;99.90;;;;;;5074045;28;20499;-73
2021/12/28 03:02:27;;;;;;;5.67;1.43;;;7.30;99.90;;;;;;5074910;28;20774;-77
2021/12/28 03:04:54;;;;;;;3.57;1.60;;;7.10;99.90;;;;;;5074818;28;20627;-78
2021/12/28 03:07:22;;;;;;;6.37;2.10;;;7.10;99.90;;;;;;5074189;28;20545;-77
2021/12/28 03:09:49;;;;;;;5.63;1.90;;;7.10;99.90;;;;;;5074541;28;20468;-77
2021/12/28 03:12:18;;;;;;;2.70;1.30;;;7.00;99.90;;;;;;5073738;28;20457;-77
2021/12/28 03:14:49;;;;;;;5.87;2.33;;;7.00;99.90;;;;;;5074642;28;20805;-77
2021/12/28 03:17:15;;;;;;;5.10;1.93;;;7.10;99.90;;;;;;5074242;28;20437;-77
2021/12/28 03:19:42;;;;;;;3.93;1.80;;;7.00;99.90;;;;;;5073992;28;20484;-77
2021/12/28 03:22:09;;;;;;;3.90;1.70;;;7.00;99.90;;;;;;5073941;28;20616;-76
2021/12/28 03:24:36;;;;;;;7.10;1.87;;;7.00;99.90;;;;;;5074305;28;20532;-78
2021/12/28 03:27:04;;;;;;;6.07;2.03;;;7.10;99.90;;;;;;5073839;28;20471;-77
2021/12/28 03:29:32;;;;;;;8.33;1.67;;;7.20;99.90;;;;;;5074233;28;20459;-77
2021/12/28 03:31:59;;;;;;;4.40;1.53;;;7.30;99.90;;;;;;5074377;28;20455;-77
2021/12/28 03:34:26;;;;;;;5.80;1.50;;;7.30;99.90;;;;;;5074415;28;20536;-77
2021/12/28 03:36:53;;;;;;;3.93;2.10;;;7.30;99.90;;;;;;5074365;28;20451;-77
2021/12/28 03:39:20;;;;;;;5.67;1.80;;;7.20;99.90;;;;;;5073177;28;21011;-77
2021/12/28 03:41:47;;;;;;;2.83;1.83;;;7.30;99.90;;;;;;5074180;28;20452;-77
2021/12/28 03:44:14;;;;;;;6.40;2.77;;;7.30;99.90;;;;;;5073342;28;21044;-77
2021/12/28 03:46:42;;;;;;;4.27;1.80;;;7.30;99.90;;;;;;5074016;28;20446;-77
2021/12/28 03:49:09;;;;;;;10.67;1.80;;;7.40;99.90;;;;;;5073613;28;20500;-79
2021/12/28 03:51:36;;;;;;;3.40;1.53;;;7.50;99.90;;;;;;5073398;28;20484;-79
2021/12/28 03:54:04;;;;;;;9.03;2.10;;;7.50;99.90;;;;;;5073580;28;20528;-77
2021/12/28 03:56:31;;;;;;;5.10;1.80;;;7.40;99.90;;;;;;5073549;28;20450;-79
2021/12/28 03:58:58;;;;;;;2.90;2.30;;;7.40;99.90;;;;;;5073691;28;20572;-79
2021/12/28 04:01:27;;;;;;;6.10;1.73;;;7.50;99.90;;;;;;5073786;28;20454;-80
2021/12/28 04:03:56;;;;;;;6.03;1.83;;;7.60;99.90;;;;;;5073942;28;20450;-77
2021/12/28 04:06:23;;;;;;;7.20;1.67;;;7.60;99.90;;;;;;5073106;28;20449;-79
2021/12/28 04:08:51;;;;;;;4.77;1.80;;;7.70;99.90;;;;;;5073106;28;20515;-77
2021/12/28 04:11:26;;;;;;;6.03;1.80;;;7.40;99.90;;;;;;5073238;28;20477;-77
2021/12/28 04:13:56;;;;;;;11.00;2.33;;;7.40;99.90;;;;;;5073367;28;20523;-78
2021/12/28 04:16:23;;;;;;;5.20;1.50;;;7.40;99.90;;;;;;5073155;28;20527;-78
2021/12/28 04:18:52;;;;;;;5.03;2.03;;;7.40;99.90;;;;;;5073172;28;20847;-77
2021/12/28 04:21:20;;;;;;;6.70;2.17;;;7.50;99.90;;;;;;5072971;28;20464;-77
2021/12/28 04:23:48;;;;;;;2.90;1.77;;;7.50;99.90;;;;;;5073323;28;20446;-77
2021/12/28 04:26:15;;;;;;;4.00;1.83;;;7.40;99.90;;;;;;5072864;28;20445;-77
2021/12/28 04:28:42;;;;;;;6.20;1.47;;;7.30;99.90;;;;;;5072552;28;20568;-79
2021/12/28 04:31:09;;;;;;;2.77;1.67;;;7.30;99.90;;;;;;5072770;28;20460;-77
2021/12/28 04:33:37;;;;;;;3.53;1.50;;;7.30;99.90;;;;;;5072924;28;20456;-77
2021/12/28 04:36:07;;;;;;;5.83;1.87;;;7.40;99.90;;;;;;5072688;28;20807;-77
2021/12/28 04:38:36;;;;;;;4.70;2.00;;;7.40;99.90;;;;;;5059925;28;20511;-79
2021/12/28 04:41:04;;;;;;;8.80;3.00;;;7.50;99.90;;;;;;5072354;28;20453;-78
2021/12/28 04:43:31;;;;;;;5.17;1.63;;;7.40;99.90;;;;;;5073071;28;20455;-78
2021/12/28 04:45:58;;;;;;;5.60;1.50;;;7.50;99.90;;;;;;5073100;28;20877;-78
2021/12/28 04:48:25;;;;;;;6.30;2.00;;;7.50;99.90;;;;;;5072825;28;20499;-79
2021/12/28 04:50:52;;;;;;;3.43;1.60;;;7.40;99.90;;;;;;5072879;28;20456;-79
2021/12/28 04:53:19;;;;;;;2.43;1.40;;;7.50;99.90;;;;;;5072133;28;20477;-75
2021/12/28 04:55:49;;;;;;;6.73;1.90;;;7.60;99.90;;;;;;5072162;28;20445;-77
2021/12/28 04:58:17;;;;;;;5.60;1.60;;;7.60;99.90;;;;;;5071635;28;20442;-76
2021/12/28 05:00:46;;;;;;;4.40;1.97;;;7.60;99.90;;;;;;5072699;28;20475;-75
2021/12/28 05:03:14;;;;;;;5.07;1.87;;;7.50;99.90;;;;;;5072086;28;20438;-75
2021/12/28 05:05:43;;;;;;;1.73;1.53;;;7.50;99.90;;;;;;5072472;28;20449;-76
2021/12/28 05:08:11;;;;;;;4.83;1.50;;;7.50;99.90;;;;;;5071841;28;20441;-73
2021/12/28 05:10:38;;;;;;;6.63;1.77;;;7.60;99.90;;;;;;5071517;28;20485;-73
2021/12/28 05:13:07;;;;;;;2.57;1.50;;;7.60;99.90;;;;;;5072043;28;20452;-76
2021/12/28 05:15:34;;;;;;;8.10;1.73;;;7.50;99.90;;;;;;5072524;28;20449;-73
2021/12/28 05:18:01;;;;;;;6.07;1.50;;;7.60;99.90;;;;;;5071934;28;20448;-73
2021/12/28 05:20:29;;;;;;;4.53;1.53;;;7.50;99.90;;;;;;5071882;28;20572;-76
2021/12/28 05:22:56;;;;;;;2.90;1.80;;;7.60;99.90;;;;;;5072008;28;20571;-74
2021/12/28 05:25:23;;;;;;;4.63;1.53;;;7.60;99.90;;;;;;5071463;28;20856;-74
2021/12/28 05:27:50;;;;;;;4.40;1.50;;;7.60;99.90;;;;;;5072260;28;20532;-74
2021/12/28 05:30:18;;;;;;;3.87;1.50;;;7.60;99.90;;;;;;5070841;28;20902;-74
2021/12/28 05:32:45;;;;;;;4.33;1.70;;;7.60;99.90;;;;;;5072174;28;20441;-74
2021/12/28 05:35:13;;;;;;;6.50;1.70;;;7.60;99.90;;;;;;5071401;28;20450;-74
2021/12/28 05:37:40;;;;;;;6.30;2.20;;;7.80;99.90;;;;;;5071924;28;20801;-73
2021/12/28 05:40:09;;;;;;;8.43;2.40;;;7.80;99.90;;;;;;5070939;28;20489;-74
2021/12/28 05:42:36;;;;;;;5.40;1.60;;;7.70;99.90;;;;;;5071853;28;20447;-74
2021/12/28 05:45:05;;;;;;;4.80;1.87;;;7.70;99.90;;;;;;5071073;28;20449;-74
2021/12/28 05:47:33;;;;;;;4.90;1.70;;;7.70;99.90;;;;;;5071516;28;20445;-74
2021/12/28 05:50:00;;;;;;;5.97;2.43;;;7.80;99.90;;;;;;5070748;28;20457;-74
2021/12/28 05:52:27;;;;;;;3.83;1.53;;;7.60;99.90;;;;;;5072071;28;20477;-74
2021/12/28 05:54:54;;;;;;;7.67;2.30;;;7.60;99.90;;;;;;5071722;28;20449;-74
2021/12/28 05:57:21;;;;;;;6.33;2.27;;;7.60;99.90;;;;;;5073564;28;20532;-74
2021/12/28 05:59:48;;;;;;;5.00;2.00;;;7.60;99.90;;;;;;5072215;28;21001;-74
2021/12/28 06:02:15;;;;;;;6.30;1.77;;;7.60;99.90;;;;;;5071495;28;20536;-74
2021/12/28 06:04:43;;;;;;;7.43;2.17;;;7.70;99.90;;;;;;5074327;28;20454;-74
2021/12/28 06:07:10;;;;;;;5.13;1.70;;;7.80;99.90;;;;;;5077309;28;20488;-74
2021/12/28 06:09:37;;;;;;;1.73;1.27;;;7.90;99.90;;;;;;5070783;28;20981;-74
2021/12/28 06:12:06;;;;;;;5.37;2.23;;;7.90;99.90;;;;;;5071113;28;20477;-77
2021/12/28 06:14:33;;;;;;;4.80;1.70;;;7.80;99.90;;;;;;5071569;28;20543;-74
2021/12/28 06:17:00;;;;;;;3.10;1.70;;;7.90;99.90;;;;;;5070947;28;20453;-73
2021/12/28 06:19:26;;;;;;;3.90;2.00;;;7.80;99.90;;;;;;5071337;28;20491;-74
2021/12/28 06:21:55;;;;;;;3.57;1.60;;;7.90;99.90;;;;;;5071100;28;20556;-77
2021/12/28 06:24:21;;;;;;;4.60;1.63;;;8.00;99.90;;;;;;5070605;28;20528;-76
2021/12/28 06:26:48;;;;;;;5.23;1.63;;;7.90;99.90;;;;;;5071193;28;20536;-76
2021/12/28 06:29:17;;;;;;;5.67;1.63;;;8.00;99.90;;;;;;5070434;28;20456;-77
2021/12/28 06:31:44;;;;;;;4.10;1.50;;;7.90;99.90;;;;;;5071036;28;20499;-77
2021/12/28 06:34:11;;;;;;;4.07;1.90;;;8.10;99.90;;;;;;5070847;28;20455;-77
2021/12/28 06:36:38;;;;;;;3.77;1.97;;;8.00;99.90;;;;;;5070883;28;21023;-77
2021/12/28 06:39:06;;;;;;;3.23;1.63;;;8.00;99.90;;;;;;5070321;28;20495;-74
2021/12/28 06:41:34;;;;;;;8.77;1.67;;;8.00;99.90;;;;;;5070931;28;20459;-77
2021/12/28 06:44:01;;;;;;;4.83;1.80;;;8.10;99.90;;;;;;5070675;28;20445;-75
2021/12/28 06:46:28;;;;;;;5.43;1.90;;;8.10;99.90;;;;;;5071127;28;21008;-74
2021/12/28 06:48:54;;;;;;;3.53;1.87;;;8.20;99.90;;;;;;5070823;28;20441;-77
2021/12/28 06:51:21;;;;;;;4.70;1.90;;;8.20;99.90;;;;;;5070146;28;21020;-75
2021/12/28 06:53:48;;;;;;;2.77;1.50;;;8.20;99.90;;;;;;5070916;28;20448;-74
2021/12/28 06:56:17;;;;;;;2.53;1.20;;;8.20;99.90;;;;;;5070010;28;20445;-75
2021/12/28 06:58:43;;;;;;;4.60;1.33;;;8.30;99.90;;;;;;5070186;28;20472;-75
2021/12/28 07:01:11;;;;;;;4.67;1.27;;;8.30;99.90;;;;;;5070330;28;20485;-75
2021/12/28 07:03:38;;;;;;;2.60;1.30;;;8.30;99.90;;;;;;5071071;28;20445;-75
2021/12/28 07:06:06;;;;;;;1.33;0.90;;;8.30;99.90;;;;;;5070382;28;20519;-75
2021/12/28 07:08:34;;;;;;;0.80;0.60;;;8.40;99.90;;;;;;5070655;28;20483;-75
2021/12/28 07:11:01;;;;;;;1.00;0.70;;;8.60;99.90;;;;;;5070250;28;20549;-75
2021/12/28 07:13:30;;;;;;;1.90;1.10;;;8.60;99.90;;;;;;5071232;28;20536;-75
2021/12/28 07:15:57;;;;;;;1.30;1.07;;;8.60;99.90;;;;;;5070897;28;20441;-75
2021/12/28 07:18:24;;;;;;;1.27;0.87;;;8.70;99.90;;;;;;5070263;28;20887;-75
2021/12/28 07:20:50;;;;;;;2.33;0.90;;;8.70;99.90;;;;;;5059435;28;20548;-75
2021/12/28 07:23:17;;;;;;;2.07;0.90;;;8.80;99.90;;;;;;5074004;28;20532;-75
2021/12/28 07:25:45;;;;;;;3.40;1.17;;;8.70;99.90;;;;;;5074462;28;20450;-75
2021/12/28 07:28:13;;;;;;;1.60;1.03;;;8.90;99.90;;;;;;5073448;28;20810;-77
2021/12/28 07:30:41;;;;;;;1.00;0.70;;;9.00;99.90;;;;;;5074438;28;20544;-75
2021/12/28 07:33:08;;;;;;;1.90;0.67;;;9.00;99.90;;;;;;5073736;28;20536;-76
2021/12/28 07:35:35;;;;;;;1.40;1.00;;;9.00;99.90;;;;;;5074229;28;20446;-76
2021/12/28 07:38:02;;;;;;;1.27;0.80;;;9.00;99.90;;;;;;5073625;28;20445;-74
2021/12/28 07:40:29;;;;;;;1.10;0.80;;;9.00;99.90;;;;;;5074252;28;20487;-76
2021/12/28 07:42:56;;;;;;;1.13;1.00;;;9.00;99.90;;;;;;5073642;28;20449;-77
2021/12/28 07:45:23;;;;;;;2.10;0.70;;;9.10;99.90;;;;;;5072982;28;20503;-77
2021/12/28 07:47:52;;;;;;;2.70;0.90;;;9.10;99.90;;;;;;5074060;28;20485;-76
2021/12/28 07:50:19;;;;;;;0.80;0.70;;;9.10;99.90;;;;;;5073263;28;20441;-78
2021/12/28 07:52:47;;;;;;;0.90;0.80;;;9.10;99.90;;;;;;5073704;28;20919;-78
2021/12/28 07:55:15;;;;;;;0.83;0.57;;;9.20;99.90;;;;;;5073340;28;20499;-78
2021/12/28 07:57:43;;;;;;;1.63;0.80;;;9.20;99.90;;;;;;5073854;28;20454;-78
2021/12/28 08:00:16;;;;;;;0.77;0.50;;;9.20;99.90;;;;;;5072824;28;20481;-78
2021/12/28 08:02:44;;;;;;;1.00;0.70;;;9.20;99.90;;;;;;5074063;28;20490;-79
2021/12/28 08:05:14;;;;;;;1.50;0.73;;;9.20;94.20;;;;;;5073632;28;20438;-79
2021/12/28 08:07:41;;;;;;;1.00;0.70;;;9.30;99.90;;;;;;5074173;28;20834;-76
2021/12/28 08:10:10;;;;;;;1.47;1.03;;;9.40;44.00;;;;;;5072849;28;20445;-77
2021/12/28 08:12:37;;;;;;;0.70;0.60;;;9.40;97.30;;;;;;5073547;28;20441;-77
2021/12/28 08:15:04;;;;;;;1.63;0.60;;;9.30;99.90;;;;;;5072958;28;20445;-77
2021/12/28 08:17:31;;;;;;;1.00;0.60;;;9.30;99.90;;;;;;5073534;28;20429;-78
2021/12/28 08:19:59;;;;;;;0.83;0.67;;;9.40;99.90;;;;;;5073559;28;20489;-77
2021/12/28 08:22:27;;;;;;;0.90;0.60;;;9.40;99.90;;;;;;5073757;28;20438;-77
2021/12/28 08:24:54;;;;;;;0.80;0.60;;;9.30;99.90;;;;;;5073460;28;20481;-76
2021/12/28 08:27:21;;;;;;;1.00;0.70;;;9.30;99.90;;;;;;5072672;28;20795;-79
2021/12/28 08:29:48;;;;;;;0.80;0.50;;;9.30;99.90;;;;;;5072720;28;20925;-78
2021/12/28 08:32:15;;;;;;;1.17;0.77;;;9.30;99.90;;;;;;5071652;28;20441;-76
2021/12/28 08:34:42;;;;;;;0.90;0.67;;;9.30;99.90;;;;;;5073392;28;20438;-76
2021/12/28 08:37:09;;;;;;;1.23;0.70;;;9.40;99.90;;;;;;5072899;28;20441;-76
2021/12/28 08:39:37;;;;;;;0.70;0.50;;;9.50;99.90;;;;;;5072964;28;20782;-76
2021/12/28 08:42:04;;;;;;;1.27;0.70;;;9.50;99.90;;;;;;5064889;28;20533;-76
2021/12/28 08:44:31;;;;;;;0.90;0.67;;;9.50;99.90;;;;;;5072569;28;20445;-75
2021/12/28 08:46:59;;;;;;;0.73;0.57;;;9.50;99.90;;;;;;5073268;28;20535;-75
2021/12/28 08:49:26;;;;;;;0.87;0.70;;;9.60;99.90;;;;;;5072769;28;20433;-76
2021/12/28 08:51:55;;;;;;;0.83;0.50;;;9.60;99.90;;;;;;5072412;28;20476;-78
2021/12/28 08:54:22;;;;;;;1.07;0.70;;;9.80;99.90;;;;;;5072579;28;20441;-81
2021/12/28 08:56:51;;;;;;;3.63;0.90;;;9.70;99.90;;;;;;5072969;28;20472;-79
2021/12/28 08:59:19;;;;;;;1.03;0.70;;;9.70;99.90;;;;;;5071956;28;20540;-78
2021/12/28 09:01:47;;;;;;;0.80;0.60;;;9.80;99.90;;;;;;5072804;28;20568;-79
2021/12/28 09:04:15;;;;;;;0.77;0.60;;;9.80;99.90;;;;;;5072257;28;20528;-81
2021/12/28 09:06:42;;;;;;;1.70;0.50;;;9.70;99.90;;;;;;5072611;28;20448;-79
2021/12/28 09:09:09;;;;;;;2.33;0.80;;;9.90;99.90;;;;;;5071898;28;20516;-80
2021/12/28 09:11:35;;;;;;;1.17;0.63;;;9.90;99.90;;;;;;5072936;28;20438;-82
2021/12/28 09:14:04;;;;;;;0.97;0.67;;;9.90;99.90;;;;;;5071955;28;20488;-79
2021/12/28 09:16:31;;;;;;;0.80;0.60;;;9.90;99.90;;;;;;5072646;28;20456;-81
2021/12/28 09:18:59;;;;;;;0.80;0.50;;;9.90;99.90;;;;;;5072244;28;20484;-81
2021/12/28 09:21:26;;;;;;;1.00;0.70;;;10.00;99.90;;;;;;5072459;28;20493;-78
2021/12/28 09:23:53;;;;;;;0.83;0.60;;;10.00;99.90;;;;;;5072426;28;20438;-77
2021/12/28 09:26:20;;;;;;;1.07;0.50;;;10.10;99.90;;;;;;5072006;28;20437;-77
2021/12/28 09:28:46;;;;;;;1.53;0.50;;;10.20;99.90;;;;;;5072201;28;20441;-78
2021/12/28 09:31:15;;;;;;;0.70;0.40;;;10.20;99.90;;;;;;5072116;28;20456;-78
2021/12/28 09:33:42;;;;;;;0.80;0.53;;;10.20;97.00;;;;;;5072379;28;20445;-78
2021/12/28 09:36:14;;;;;;;1.23;0.50;;;10.30;99.90;;;;;;5071461;28;20443;-78
2021/12/28 09:38:41;;;;;;;0.90;0.50;;;10.30;99.90;;;;;;5071999;28;20452;-78
2021/12/28 09:41:08;;;;;;;0.80;0.63;;;10.40;99.90;;;;;;5071582;28;21063;-77
2021/12/28 09:43:35;;;;;;;1.20;0.60;;;10.40;97.70;;;;;;5072164;28;20533;-78
2021/12/28 09:46:02;;;;;;;0.90;0.70;;;10.50;99.90;;;;;;5071741;28;20540;-78
2021/12/28 09:48:31;;;;;;;1.00;0.60;;;10.50;95.40;;;;;;5071657;28;20477;-78
2021/12/28 09:51:02;;;;;;;1.77;0.80;;;10.60;93.90;;;;;;5071986;28;20473;-79
2021/12/28 09:53:29;;;;;;;0.80;0.60;;;10.50;89.40;;;;;;5072477;28;20476;-78
2021/12/28 09:55:56;;;;;;;1.53;0.80;;;10.60;88.70;;;;;;5072099;28;20472;-79
2021/12/28 09:58:23;;;;;;;1.37;0.80;;;10.70;35.70;;;;;;5070505;28;20784;-79
2021/12/28 10:00:50;;;;;;;0.90;0.60;;;10.80;60.70;;;;;;5071873;28;20973;-79
2021/12/28 10:03:18;;;;;;;3.90;1.20;;;10.80;92.40;;;;;;5071370;28;20544;-79
2021/12/28 10:05:46;;;;;;;0.80;0.60;;;10.90;22.70;;;;;;5071510;28;20446;-79
2021/12/28 10:08:13;;;;;;;1.20;0.70;;;11.00;1.00;;;;;;5070823;28;20484;-79
2021/12/28 10:10:42;;;;;;;1.73;0.90;;;11.10;1.00;;;;;;5071326;28;20511;-78
2021/12/28 10:13:11;;;;;;;3.43;0.87;;;11.20;1.00;;;;;;5071020;28;20473;-79
2021/12/28 10:15:42;;;;;;;1.10;0.60;;;11.20;1.00;;;;;;5071513;28;20442;-79
2021/12/28 10:18:10;;;;;;;2.03;0.77;;;11.20;1.00;;;;;;5070627;28;20490;-79
2021/12/28 10:20:40;;;;;;;3.20;1.07;;;11.30;1.00;;;;;;5071511;28;20568;-79
2021/12/28 10:23:10;;;;;;;1.00;0.80;;;11.40;1.00;;;;;;5070928;28;20798;-78
2021/12/28 10:25:40;;;;;;;1.27;0.70;;;11.40;1.00;;;;;;5071635;28;20437;-79
2021/12/28 10:28:09;;;;;;;1.40;0.70;;;11.30;1.00;;;;;;5070457;28;20446;-79
2021/12/28 10:30:40;;;;;;;0.60;0.50;;;11.30;1.00;;;;;;5071413;28;20528;-79
2021/12/28 10:33:09;;;;;;;0.80;0.60;;;11.20;6.90;;;;;;5070748;28;20855;-79
2021/12/28 10:35:38;;;;;;;1.27;0.70;;;11.20;42.80;;;;;;5071470;28;20863;-79
2021/12/28 10:38:07;;;;;;;0.70;0.50;;;11.30;16.00;;;;;;5070398;28;20556;-80
2021/12/28 10:40:37;;;;;;;1.13;0.60;;;11.40;5.80;;;;;;5071319;28;20481;-79
2021/12/28 10:43:07;;;;;;;0.93;0.60;;;11.40;1.00;;;;;;5070831;28;20445;-78
2021/12/28 10:45:38;;;;;;;1.50;0.57;;;11.50;9.40;;;;;;5071303;28;20473;-78
2021/12/28 10:48:08;;;;;;;0.87;0.57;;;11.60;1.00;;;;;;5070227;28;20441;-78
2021/12/28 10:50:39;;;;;;;1.17;0.70;;;11.70;23.90;;;;;;5071029;28;20528;-78
2021/12/28 10:53:14;;;;;;;0.80;0.60;;;11.60;23.20;;;;;;5069911;28;20477;-78
2021/12/28 10:55:44;;;;;;;0.97;0.70;;;11.60;86.20;;;;;;5073037;28;20527;-78
2021/12/28 10:58:22;;;;;;;1.83;0.70;;;11.70;43.50;;;;;;5073978;28;20437;-78
2021/12/28 11:00:49;;;;;;;0.73;0.50;;;11.70;39.40;;;;;;5075052;28;20469;-79
2021/12/28 11:03:32;;;;;;;0.80;0.50;;;11.70;34.10;;;;;;5074380;28;20528;-79
2021/12/28 11:06:01;;;;;;;1.20;0.70;;;11.70;65.70;;;;;;5074654;28;20986;-79
2021/12/28 11:08:29;;;;;;;0.80;0.60;;;11.80;91.20;;;;;;5074745;28;20441;-80
2021/12/28 11:11:01;;;;;;;0.80;0.50;;;11.80;46.30;;;;;;5074998;28;20783;-78
2021/12/28 11:13:30;;;;;;;0.73;0.60;;;12.00;35.80;;;;;;5075003;28;20437;-78
2021/12/28 11:15:58;;;;;;;0.80;0.70;;;11.90;93.90;;;;;;5061777;28;20444;-78
2021/12/28 11:18:30;;;;;;;0.80;0.60;;;11.90;42.40;;;;;;5074147;28;20447;-78
2021/12/28 11:20:59;;;;;;;1.33;0.57;;;12.00;35.30;;;;;;5074673;28;20469;-81
2021/12/28 11:23:28;;;;;;;1.90;0.83;;;12.20;1.00;;;;;;5074659;28;20768;-79
2021/12/28 11:26:06;;;;;;;0.80;0.60;;;12.20;1.00;;;;;;5074704;28;20445;-79
2021/12/28 11:28:34;;;;;;;1.37;0.73;;;12.20;1.00;;;;;;5074274;28;20792;-78
2021/12/28 11:31:11;;;;;;;0.70;0.50;;;12.20;1.00;;;;;;5074049;28;20443;-80
2021/12/28 11:33:58;;;;;;;0.70;0.47;;;12.40;1.00;;;;;;5074382;28;20537;-80
2021/12/28 11:36:28;;;;;;;0.73;0.60;;;12.40;1.00;;;;;;5074304;28;20456;-78
2021/12/28 11:38:56;;;;;;;1.00;0.60;;;12.30;1.00;;;;;;5074043;28;20437;-78
2021/12/28 11:41:25;;;;;;;1.00;0.80;;;12.30;1.00;;;;;;5073641;28;20499;-79
2021/12/28 11:43:53;;;;;;;0.80;0.70;;;12.30;1.00;;;;;;5074219;28;20441;-79
2021/12/28 11:46:20;;;;;;;1.23;0.80;;;;;;;;;;5073547;28;20445;-80
2021/12/28 11:48:48;;;;;;;2.10;0.90;;;;;;;;;;5073378;28;20935;-80
2021/12/28 11:51:15;;;;;;;1.10;0.80;;;;;;;;;;5073001;28;20455;-80
2021/12/28 11:53:44;;;;;;;0.83;0.70;;;;;;;;;;5073878;28;20469;-80
2021/12/28 11:56:11;;;;;;;0.90;0.70;;;;;;;;;;5073247;28;20469;-80
2021/12/28 11:59:01;;;;;;;0.80;0.60;;;;;;;;;;5073503;28;20465;-80
2021/12/28 12:01:51;;;;;;;2.97;0.70;;;;;;;;;;5061366;28;20542;-81
2021/12/28 12:04:42;;;;;;;1.13;0.60;;;;;;;;;;5073402;28;20510;-80
2021/12/28 12:07:12;;;;;;;1.30;0.60;;;;;;;;;;5071782;28;20429;-80
2021/12/28 12:09:55;;;;;;;1.53;0.73;;;;;;;;;;5073198;28;20861;-80
2021/12/28 12:12:23;;;;;;;0.60;0.40;;;;;;;;;;5072778;28;20997;-81
2021/12/28 12:15:10;;;;;;;1.67;0.73;;;;;;;;;;5073767;28;20528;-80
2021/12/28 12:17:39;;;;;;;1.10;0.70;;;;;;;;;;5060196;28;20835;-80
2021/12/28 12:20:07;;;;;;;13.73;1.10;;;;;;;;;;5075913;28;20434;-79
2021/12/28 12:22:35;;;;;;;1.40;0.60;;;;;;;;;;5079455;28;20512;-80
2021/12/28 12:25:03;;;;;;;1.77;0.80;;;;;;;;;;5079623;28;20509;-80
2021/12/28 12:27:40;;;;;;;1.43;0.60;;;;;;;;;;5079217;28;20525;-75
2021/12/28 12:30:29;;;;;;;0.70;0.53;;;;;;;;;;5077312;28;20799;-79
2021/12/28 12:33:05;;;;;;;1.10;0.60;;;;;;;;;;5076718;28;20532;-80
2021/12/28 12:35:33;;;;;;;1.10;0.70;;;;;;;;;;5062334;28;20507;-80
2021/12/28 12:38:00;;;;;;;1.63;1.23;;;;;;;;;;5072439;28;20441;-79
2021/12/28 12:40:42;;;;;;;2.03;0.70;;;;;;;;;;5073195;28;20524;-81
2021/12/28 12:43:10;;;;;;;1.37;0.87;;;;;;;;;;5072198;28;20437;-80
2021/12/28 12:45:57;;;;;;;1.10;0.60;;;;;;;;;;5073088;28;20917;-81
2021/12/28 12:48:55;;;;;;;1.10;0.87;;;;;;;;;;5072092;28;20440;-81
2021/12/28 12:51:33;;;;;;;0.90;0.60;;;;;;;;;;5072301;28;20558;-80
2021/12/28 12:54:12;;;;;;;2.00;0.80;;;;;;;;;;5072867;28;20429;-72
2021/12/28 12:56:40;;;;;;;0.87;0.60;;;;;;;;;;5073039;28;20433;-80
2021/12/28 12:59:21;;;;;;;1.40;0.70;;;;;;;;;;5071553;28;20930;-81
2021/12/28 13:01:57;;;;;;;1.40;0.90;;;;;;;;;;5072867;28;20491;-80
2021/12/28 13:04:46;;;;;;;1.20;0.80;;;;;;;;;;5072781;28;20449;-81
2021/12/28 13:07:14;;;;;;;1.37;0.77;;;;;;;;;;5072353;28;20445;-80
2021/12/28 13:09:41;;;;;;;0.87;0.70;;;;;;;;;;5072009;28;20475;-80
2021/12/28 13:12:09;;;;;;;1.20;0.80;;;;;;;;;;5071467;28;20532;-80
2021/12/28 13:14:36;;;;;;;0.90;0.73;;;;;;;;;;5072839;28;20560;-80
2021/12/28 13:17:05;;;;;;;1.20;0.60;;;;;;;;;;5071634;28;20444;-80